sensor_id;sensor_type;location;lat;lon;timestamp;P1;durP1;ratioP1;P2;durP2;ratioP2
69280;SDS011;56392;51.082;17.080;2023-07-22T00:05:29;9.10;;;3.00;;
69280;SDS011;56392;51.082;17.080;2023-07-22T00:10:52;7.37;;;3.10;;
69280;SDS011;56392;51.082;17.080;2023-07-22T00:16:17;6.65;;;2.80;;
69280;SDS011;56392;51.082;17.080;2023-07-22T00:21:40;9.25;;;3.33;;
69280;SDS011;56392;51.082;17.080;2023-07-22T00:27:03;7.90;;;3.20;;
69280;SDS011;56392;51.082;17.080;2023-07-22T00:32:28;8.40;;;3.13;;
69280;SDS011;56392;51.082;17.080;2023-07-22T00:37:51;6.68;;;3.05;;
69280;SDS011;56392;51.082;17.080;2023-07-22T00:43:14;6.50;;;3.00;;
69280;SDS011;56392;51.082;17.080;2023-07-22T00:48:39;7.25;;;3.00;;
69280;SDS011;56392;51.082;17.080;2023-07-22T00:54:02;7.72;;;3.05;;
69280;SDS011;56392;51.082;17.080;2023-07-22T00:59:26;7.23;;;3.30;;
69280;SDS011;56392;51.082;17.080;2023-07-22T01:04:52;8.90;;;3.03;;
69280;SDS011;56392;51.082;17.080;2023-07-22T01:10:15;6.82;;;2.80;;
69280;SDS011;56392;51.082;17.080;2023-07-22T01:15:38;6.72;;;3.15;;
69280;SDS011;56392;51.082;17.080;2023-07-22T01:21:03;7.37;;;3.50;;
69280;SDS011;56392;51.082;17.080;2023-07-22T01:26:29;9.82;;;3.30;;
69280;SDS011;56392;51.082;17.080;2023-07-22T01:31:53;7.03;;;3.67;;
69280;SDS011;56392;51.082;17.080;2023-07-22T01:37:17;7.50;;;3.73;;
69280;SDS011;56392;51.082;17.080;2023-07-22T01:42:42;7.53;;;3.78;;
69280;SDS011;56392;51.082;17.080;2023-07-22T01:48:05;9.35;;;3.90;;
69280;SDS011;56392;51.082;17.080;2023-07-22T01:53:28;9.00;;;3.77;;
69280;SDS011;56392;51.082;17.080;2023-07-22T01:58:53;7.73;;;3.50;;
69280;SDS011;56392;51.082;17.080;2023-07-22T02:04:16;9.02;;;3.47;;
69280;SDS011;56392;51.082;17.080;2023-07-22T02:09:39;7.60;;;3.92;;
69280;SDS011;56392;51.082;17.080;2023-07-22T02:15:04;7.77;;;3.90;;
69280;SDS011;56392;51.082;17.080;2023-07-22T02:20:28;10.13;;;3.83;;
69280;SDS011;56392;51.082;17.080;2023-07-22T02:25:51;8.18;;;3.67;;
69280;SDS011;56392;51.082;17.080;2023-07-22T02:31:16;7.47;;;3.80;;
69280;SDS011;56392;51.082;17.080;2023-07-22T02:36:39;7.90;;;3.85;;
69280;SDS011;56392;51.082;17.080;2023-07-22T02:42:03;7.70;;;4.20;;
69280;SDS011;56392;51.082;17.080;2023-07-22T02:47:27;9.47;;;4.80;;
69280;SDS011;56392;51.082;17.080;2023-07-22T02:52:51;9.77;;;4.53;;
69280;SDS011;56392;51.082;17.080;2023-07-22T02:58:14;9.70;;;4.68;;
69280;SDS011;56392;51.082;17.080;2023-07-22T03:03:38;9.60;;;4.60;;
69280;SDS011;56392;51.082;17.080;2023-07-22T03:09:02;9.73;;;4.73;;
69280;SDS011;56392;51.082;17.080;2023-07-22T03:14:26;8.43;;;4.30;;
69280;SDS011;56392;51.082;17.080;2023-07-22T03:19:50;10.15;;;4.65;;
69280;SDS011;56392;51.082;17.080;2023-07-22T03:25:14;9.70;;;4.50;;
69280;SDS011;56392;51.082;17.080;2023-07-22T03:30:39;8.77;;;4.40;;
69280;SDS011;56392;51.082;17.080;2023-07-22T03:36:03;8.93;;;4.35;;
69280;SDS011;56392;51.082;17.080;2023-07-22T03:41:26;9.77;;;4.20;;
69280;SDS011;56392;51.082;17.080;2023-07-22T03:46:49;12.60;;;4.10;;
69280;SDS011;56392;51.082;17.080;2023-07-22T03:52:14;8.48;;;3.90;;
69280;SDS011;56392;51.082;17.080;2023-07-22T03:57:39;8.43;;;4.10;;
69280;SDS011;56392;51.082;17.080;2023-07-22T04:03:02;9.67;;;3.77;;
69280;SDS011;56392;51.082;17.080;2023-07-22T04:08:27;11.13;;;3.72;;
69280;SDS011;56392;51.082;17.080;2023-07-22T04:13:50;9.50;;;4.00;;
69280;SDS011;56392;51.082;17.080;2023-07-22T04:19:13;10.27;;;3.93;;
69280;SDS011;56392;51.082;17.080;2023-07-22T04:24:39;8.20;;;3.88;;
69280;SDS011;56392;51.082;17.080;2023-07-22T04:30:02;9.32;;;4.10;;
69280;SDS011;56392;51.082;17.080;2023-07-22T04:35:25;7.87;;;3.60;;
69280;SDS011;56392;51.082;17.080;2023-07-22T04:40:50;7.60;;;3.57;;
69280;SDS011;56392;51.082;17.080;2023-07-22T04:46:13;9.43;;;3.78;;
69280;SDS011;56392;51.082;17.080;2023-07-22T04:51:36;8.40;;;3.38;;
69280;SDS011;56392;51.082;17.080;2023-07-22T04:57:01;7.10;;;3.17;;
69280;SDS011;56392;51.082;17.080;2023-07-22T05:02:24;6.50;;;3.10;;
69280;SDS011;56392;51.082;17.080;2023-07-22T05:07:47;7.65;;;2.90;;
69280;SDS011;56392;51.082;17.080;2023-07-22T05:13:12;8.40;;;2.93;;
69280;SDS011;56392;51.082;17.080;2023-07-22T05:18:35;7.57;;;3.05;;
69280;SDS011;56392;51.082;17.080;2023-07-22T05:24:00;7.28;;;2.60;;
69280;SDS011;56392;51.082;17.080;2023-07-22T05:29:24;6.07;;;2.47;;
69280;SDS011;56392;51.082;17.080;2023-07-22T05:34:48;6.00;;;2.30;;
69280;SDS011;56392;51.082;17.080;2023-07-22T05:40:11;6.35;;;2.53;;
69280;SDS011;56392;51.082;17.080;2023-07-22T05:45:35;6.50;;;2.58;;
69280;SDS011;56392;51.082;17.080;2023-07-22T05:50:58;6.97;;;2.37;;
69280;SDS011;56392;51.082;17.080;2023-07-22T05:56:21;8.02;;;2.50;;
69280;SDS011;56392;51.082;17.080;2023-07-22T06:01:48;8.40;;;2.30;;
69280;SDS011;56392;51.082;17.080;2023-07-22T06:07:11;5.80;;;2.47;;
69280;SDS011;56392;51.082;17.080;2023-07-22T06:12:34;7.03;;;2.38;;
69280;SDS011;56392;51.082;17.080;2023-07-22T06:17:59;6.85;;;2.50;;
69280;SDS011;56392;51.082;17.080;2023-07-22T06:23:22;7.53;;;2.50;;
69280;SDS011;56392;51.082;17.080;2023-07-22T06:28:45;7.07;;;2.53;;
69280;SDS011;56392;51.082;17.080;2023-07-22T06:34:10;6.35;;;2.30;;
69280;SDS011;56392;51.082;17.080;2023-07-22T06:39:33;7.25;;;2.20;;
69280;SDS011;56392;51.082;17.080;2023-07-22T06:44:56;5.77;;;2.33;;
69280;SDS011;56392;51.082;17.080;2023-07-22T06:50:20;7.38;;;2.60;;
69280;SDS011;56392;51.082;17.080;2023-07-22T06:55:48;7.30;;;2.45;;
69280;SDS011;56392;51.082;17.080;2023-07-22T07:01:12;7.43;;;2.40;;
69280;SDS011;56392;51.082;17.080;2023-07-22T07:06:36;6.60;;;2.47;;
69280;SDS011;56392;51.082;17.080;2023-07-22T07:12:00;7.68;;;2.38;;
69280;SDS011;56392;51.082;17.080;2023-07-22T07:17:23;7.50;;;2.53;;
69280;SDS011;56392;51.082;17.080;2023-07-22T07:22:48;7.77;;;2.60;;
69280;SDS011;56392;51.082;17.080;2023-07-22T07:28:10;8.32;;;2.70;;
69280;SDS011;56392;51.082;17.080;2023-07-22T07:33:35;9.60;;;2.70;;
69280;SDS011;56392;51.082;17.080;2023-07-22T07:39:00;6.27;;;2.53;;
69280;SDS011;56392;51.082;17.080;2023-07-22T07:44:24;6.18;;;2.85;;
69280;SDS011;56392;51.082;17.080;2023-07-22T07:49:47;8.77;;;2.60;;
69280;SDS011;56392;51.082;17.080;2023-07-22T07:55:11;6.23;;;2.47;;
69280;SDS011;56392;51.082;17.080;2023-07-22T08:00:34;5.45;;;2.13;;
69280;SDS011;56392;51.082;17.080;2023-07-22T08:05:57;8.20;;;2.50;;
69280;SDS011;56392;51.082;17.080;2023-07-22T08:11:22;5.97;;;2.10;;
69280;SDS011;56392;51.082;17.080;2023-07-22T08:16:45;9.80;;;2.27;;
69280;SDS011;56392;51.082;17.080;2023-07-22T08:22:08;7.28;;;1.98;;
69280;SDS011;56392;51.082;17.080;2023-07-22T08:27:32;7.88;;;2.33;;
69280;SDS011;56392;51.082;17.080;2023-07-22T08:32:55;7.33;;;2.13;;
69280;SDS011;56392;51.082;17.080;2023-07-22T08:38:18;6.93;;;2.10;;
69280;SDS011;56392;51.082;17.080;2023-07-22T08:43:43;5.88;;;1.80;;
69280;SDS011;56392;51.082;17.080;2023-07-22T08:49:09;6.93;;;1.97;;
69280;SDS011;56392;51.082;17.080;2023-07-22T08:54:32;5.78;;;2.00;;
69280;SDS011;56392;51.082;17.080;2023-07-22T08:59:58;5.03;;;1.85;;
69280;SDS011;56392;51.082;17.080;2023-07-22T09:05:22;6.28;;;1.83;;
69280;SDS011;56392;51.082;17.080;2023-07-22T09:10:47;6.90;;;2.40;;
69280;SDS011;56392;51.082;17.080;2023-07-22T09:16:14;12.18;;;2.13;;
69280;SDS011;56392;51.082;17.080;2023-07-22T09:21:39;5.93;;;2.03;;
69280;SDS011;56392;51.082;17.080;2023-07-22T09:27:03;6.23;;;2.00;;
69280;SDS011;56392;51.082;17.080;2023-07-22T09:32:35;6.63;;;1.92;;
69280;SDS011;56392;51.082;17.080;2023-07-22T09:37:58;5.85;;;2.10;;
69280;SDS011;56392;51.082;17.080;2023-07-22T09:43:22;6.40;;;2.27;;
69280;SDS011;56392;51.082;17.080;2023-07-22T09:48:47;6.80;;;2.10;;
69280;SDS011;56392;51.082;17.080;2023-07-22T09:54:10;6.38;;;2.28;;
69280;SDS011;56392;51.082;17.080;2023-07-22T09:59:33;5.57;;;2.00;;
69280;SDS011;56392;51.082;17.080;2023-07-22T10:04:57;7.57;;;2.20;;
69280;SDS011;56392;51.082;17.080;2023-07-22T10:10:24;8.38;;;1.98;;
69280;SDS011;56392;51.082;17.080;2023-07-22T10:15:51;5.82;;;2.13;;
69280;SDS011;56392;51.082;17.080;2023-07-22T10:21:16;6.53;;;2.43;;
69280;SDS011;56392;51.082;17.080;2023-07-22T10:26:40;5.78;;;2.30;;
69280;SDS011;56392;51.082;17.080;2023-07-22T10:32:03;9.55;;;2.30;;
69280;SDS011;56392;51.082;17.080;2023-07-22T10:37:30;6.90;;;2.60;;
69280;SDS011;56392;51.082;17.080;2023-07-22T10:42:56;5.95;;;2.58;;
69280;SDS011;56392;51.082;17.080;2023-07-22T10:48:23;7.03;;;2.58;;
69280;SDS011;56392;51.082;17.080;2023-07-22T10:53:49;7.25;;;2.63;;
69280;SDS011;56392;51.082;17.080;2023-07-22T10:59:12;8.80;;;2.37;;
69280;SDS011;56392;51.082;17.080;2023-07-22T11:04:36;7.32;;;2.35;;
69280;SDS011;56392;51.082;17.080;2023-07-22T11:10:11;8.00;;;2.38;;
69280;SDS011;56392;51.082;17.080;2023-07-22T11:15:37;6.87;;;2.30;;
69280;SDS011;56392;51.082;17.080;2023-07-22T11:21:00;5.90;;;2.30;;
69280;SDS011;56392;51.082;17.080;2023-07-22T11:26:24;6.82;;;2.45;;
69280;SDS011;56392;51.082;17.080;2023-07-22T11:31:48;8.00;;;2.30;;
69280;SDS011;56392;51.082;17.080;2023-07-22T11:37:13;6.43;;;2.10;;
69280;SDS011;56392;51.082;17.080;2023-07-22T11:42:39;6.70;;;2.22;;
69280;SDS011;56392;51.082;17.080;2023-07-22T11:48:08;6.05;;;2.30;;
69280;SDS011;56392;51.082;17.080;2023-07-22T11:53:32;6.80;;;2.27;;
69280;SDS011;56392;51.082;17.080;2023-07-22T11:58:56;6.85;;;2.28;;
69280;SDS011;56392;51.082;17.080;2023-07-22T12:04:23;5.70;;;2.17;;
69280;SDS011;56392;51.082;17.080;2023-07-22T12:09:47;8.27;;;2.40;;
69280;SDS011;56392;51.082;17.080;2023-07-22T12:15:14;7.75;;;2.40;;
69280;SDS011;56392;51.082;17.080;2023-07-22T12:20:38;5.75;;;2.50;;
69280;SDS011;56392;51.082;17.080;2023-07-22T12:26:02;7.00;;;2.50;;
69280;SDS011;56392;51.082;17.080;2023-07-22T12:31:27;6.55;;;2.20;;
69280;SDS011;56392;51.082;17.080;2023-07-22T12:36:50;7.63;;;2.40;;
69280;SDS011;56392;51.082;17.080;2023-07-22T12:42:13;6.38;;;2.38;;
69280;SDS011;56392;51.082;17.080;2023-07-22T12:47:38;6.63;;;2.20;;
69280;SDS011;56392;51.082;17.080;2023-07-22T12:53:01;6.15;;;2.25;;
69280;SDS011;56392;51.082;17.080;2023-07-22T12:58:25;6.10;;;2.00;;
69280;SDS011;56392;51.082;17.080;2023-07-22T13:03:49;7.60;;;2.30;;
69280;SDS011;56392;51.082;17.080;2023-07-22T13:09:12;6.95;;;2.25;;
69280;SDS011;56392;51.082;17.080;2023-07-22T13:14:35;6.57;;;2.20;;
69280;SDS011;56392;51.082;17.080;2023-07-22T13:20:00;7.30;;;2.30;;
69280;SDS011;56392;51.082;17.080;2023-07-22T13:25:23;11.07;;;2.40;;
69280;SDS011;56392;51.082;17.080;2023-07-22T13:30:48;6.15;;;1.95;;
69280;SDS011;56392;51.082;17.080;2023-07-22T13:36:14;7.35;;;2.10;;
69280;SDS011;56392;51.082;17.080;2023-07-22T13:41:37;39.43;;;3.57;;
69280;SDS011;56392;51.082;17.080;2023-07-22T13:47:00;10.15;;;2.50;;
69280;SDS011;56392;51.082;17.080;2023-07-22T13:52:24;6.35;;;2.10;;
69280;SDS011;56392;51.082;17.080;2023-07-22T13:57:47;15.23;;;2.50;;
69280;SDS011;56392;51.082;17.080;2023-07-22T14:21:08;8.03;;;2.80;;
69280;SDS011;56392;51.082;17.080;2023-07-22T14:26:32;7.50;;;2.78;;
69280;SDS011;56392;51.082;17.080;2023-07-22T14:31:55;7.38;;;2.60;;
69280;SDS011;56392;51.082;17.080;2023-07-22T14:37:20;8.37;;;2.47;;
69280;SDS011;56392;51.082;17.080;2023-07-22T14:42:43;6.22;;;2.47;;
69280;SDS011;56392;51.082;17.080;2023-07-22T15:03:49;12.85;;;3.00;;
69280;SDS011;56392;51.082;17.080;2023-07-22T15:09:12;16.80;;;2.72;;
69280;SDS011;56392;51.082;17.080;2023-07-22T15:14:35;10.90;;;2.63;;
69280;SDS011;56392;51.082;17.080;2023-07-22T15:20:00;10.23;;;2.83;;
69280;SDS011;56392;51.082;17.080;2023-07-22T15:25:23;11.60;;;2.78;;
69280;SDS011;56392;51.082;17.080;2023-07-22T15:30:46;7.40;;;2.55;;
69280;SDS011;56392;51.082;17.080;2023-07-22T15:36:11;7.67;;;2.40;;
69280;SDS011;56392;51.082;17.080;2023-07-22T15:41:34;5.95;;;2.38;;
69280;SDS011;56392;51.082;17.080;2023-07-22T15:46:57;8.20;;;2.50;;
69280;SDS011;56392;51.082;17.080;2023-07-22T15:52:21;6.83;;;2.40;;
69280;SDS011;56392;51.082;17.080;2023-07-22T15:57:45;7.97;;;2.72;;
69280;SDS011;56392;51.082;17.080;2023-07-22T16:03:09;14.43;;;3.10;;
69280;SDS011;56392;51.082;17.080;2023-07-22T16:08:33;9.05;;;2.70;;
69280;SDS011;56392;51.082;17.080;2023-07-22T16:13:56;7.20;;;2.43;;
69280;SDS011;56392;51.082;17.080;2023-07-22T16:19:20;10.23;;;2.63;;
69280;SDS011;56392;51.082;17.080;2023-07-22T16:24:44;21.85;;;3.10;;
69280;SDS011;56392;51.082;17.080;2023-07-22T16:30:07;11.07;;;2.60;;
69280;SDS011;56392;51.082;17.080;2023-07-22T16:35:30;10.40;;;2.75;;
69280;SDS011;56392;51.082;17.080;2023-07-22T16:40:55;9.00;;;2.83;;
69280;SDS011;56392;51.082;17.080;2023-07-22T16:46:17;6.53;;;2.30;;
69280;SDS011;56392;51.082;17.080;2023-07-22T16:51:40;6.68;;;2.55;;
69280;SDS011;56392;51.082;17.080;2023-07-22T16:57:07;7.15;;;2.55;;
69280;SDS011;56392;51.082;17.080;2023-07-22T17:02:30;6.03;;;2.53;;
69280;SDS011;56392;51.082;17.080;2023-07-22T17:07:53;6.77;;;2.43;;
69280;SDS011;56392;51.082;17.080;2023-07-22T17:13:21;7.78;;;2.50;;
69280;SDS011;56392;51.082;17.080;2023-07-22T17:18:44;8.13;;;2.55;;
69280;SDS011;56392;51.082;17.080;2023-07-22T17:24:07;6.93;;;2.23;;
69280;SDS011;56392;51.082;17.080;2023-07-22T17:29:31;7.20;;;2.30;;
69280;SDS011;56392;51.082;17.080;2023-07-22T17:34:54;6.15;;;2.33;;
69280;SDS011;56392;51.082;17.080;2023-07-22T17:40:17;7.07;;;2.20;;
69280;SDS011;56392;51.082;17.080;2023-07-22T17:45:42;7.30;;;2.28;;
69280;SDS011;56392;51.082;17.080;2023-07-22T17:51:05;6.28;;;2.50;;
69280;SDS011;56392;51.082;17.080;2023-07-22T17:56:28;6.00;;;2.30;;
69280;SDS011;56392;51.082;17.080;2023-07-22T18:01:52;6.77;;;2.40;;
69280;SDS011;56392;51.082;17.080;2023-07-22T18:07:15;5.65;;;2.08;;
69280;SDS011;56392;51.082;17.080;2023-07-22T18:12:39;7.53;;;2.33;;
69280;SDS011;56392;51.082;17.080;2023-07-22T18:18:05;8.23;;;2.77;;
69280;SDS011;56392;51.082;17.080;2023-07-22T18:23:28;12.57;;;2.60;;
69280;SDS011;56392;51.082;17.080;2023-07-22T18:28:51;8.07;;;2.25;;
69280;SDS011;56392;51.082;17.080;2023-07-22T18:34:16;7.80;;;2.60;;
69280;SDS011;56392;51.082;17.080;2023-07-22T18:39:42;7.50;;;3.33;;
69280;SDS011;56392;51.082;17.080;2023-07-22T18:45:06;7.50;;;2.75;;
69280;SDS011;56392;51.082;17.080;2023-07-22T18:50:31;6.73;;;2.37;;
69280;SDS011;56392;51.082;17.080;2023-07-22T18:55:54;7.27;;;3.00;;
69280;SDS011;56392;51.082;17.080;2023-07-22T19:01:18;8.40;;;2.88;;
69280;SDS011;56392;51.082;17.080;2023-07-22T19:06:43;7.32;;;2.78;;
69280;SDS011;56392;51.082;17.080;2023-07-22T19:12:07;9.20;;;4.33;;
69280;SDS011;56392;51.082;17.080;2023-07-22T19:17:31;7.38;;;3.10;;
69280;SDS011;56392;51.082;17.080;2023-07-22T19:22:55;7.38;;;3.00;;
69280;SDS011;56392;51.082;17.080;2023-07-22T19:28:19;7.73;;;3.30;;
69280;SDS011;56392;51.082;17.080;2023-07-22T19:33:42;7.35;;;3.15;;
69280;SDS011;56392;51.082;17.080;2023-07-22T19:39:07;7.85;;;3.20;;
69280;SDS011;56392;51.082;17.080;2023-07-22T19:44:30;10.70;;;4.33;;
69280;SDS011;56392;51.082;17.080;2023-07-22T19:49:53;9.07;;;4.00;;
69280;SDS011;56392;51.082;17.080;2023-07-22T19:55:19;8.95;;;4.00;;
69280;SDS011;56392;51.082;17.080;2023-07-22T20:00:47;9.55;;;4.10;;
69280;SDS011;56392;51.082;17.080;2023-07-22T20:06:10;9.93;;;4.60;;
69280;SDS011;56392;51.082;17.080;2023-07-22T20:11:34;11.68;;;4.75;;
69280;SDS011;56392;51.082;17.080;2023-07-22T20:17:03;11.27;;;4.82;;
69280;SDS011;56392;51.082;17.080;2023-07-22T20:22:26;10.07;;;4.50;;
69280;SDS011;56392;51.082;17.080;2023-07-22T20:27:51;11.95;;;4.90;;
69280;SDS011;56392;51.082;17.080;2023-07-22T20:33:14;10.43;;;4.32;;
69280;SDS011;56392;51.082;17.080;2023-07-22T20:38:37;11.50;;;5.10;;
69280;SDS011;56392;51.082;17.080;2023-07-22T20:44:02;14.13;;;5.83;;
69280;SDS011;56392;51.082;17.080;2023-07-22T20:49:25;14.63;;;6.15;;
69280;SDS011;56392;51.082;17.080;2023-07-22T20:54:48;19.23;;;7.25;;
69280;SDS011;56392;51.082;17.080;2023-07-22T21:00:13;15.00;;;7.93;;
69280;SDS011;56392;51.082;17.080;2023-07-22T21:05:36;18.60;;;8.32;;
69280;SDS011;56392;51.082;17.080;2023-07-22T21:11:00;15.85;;;7.07;;
69280;SDS011;56392;51.082;17.080;2023-07-22T21:16:24;15.57;;;7.27;;
69280;SDS011;56392;51.082;17.080;2023-07-22T21:21:47;15.85;;;7.32;;
69280;SDS011;56392;51.082;17.080;2023-07-22T21:27:10;17.23;;;6.88;;
69280;SDS011;56392;51.082;17.080;2023-07-22T21:32:35;13.30;;;7.07;;
69280;SDS011;56392;51.082;17.080;2023-07-22T21:37:58;16.53;;;7.20;;
69280;SDS011;56392;51.082;17.080;2023-07-22T21:43:23;13.50;;;6.53;;
69280;SDS011;56392;51.082;17.080;2023-07-22T21:48:47;16.40;;;6.75;;
69280;SDS011;56392;51.082;17.080;2023-07-22T21:54:10;13.10;;;6.67;;
69280;SDS011;56392;51.082;17.080;2023-07-22T21:59:33;14.57;;;6.75;;
69280;SDS011;56392;51.082;17.080;2023-07-22T22:04:59;16.45;;;8.35;;
69280;SDS011;56392;51.082;17.080;2023-07-22T22:10:22;20.90;;;10.57;;
69280;SDS011;56392;51.082;17.080;2023-07-22T22:15:45;20.33;;;12.27;;
69280;SDS011;56392;51.082;17.080;2023-07-22T22:21:10;18.40;;;10.27;;
69280;SDS011;56392;51.082;17.080;2023-07-22T22:26:33;20.27;;;11.00;;
69280;SDS011;56392;51.082;17.080;2023-07-22T22:31:56;14.23;;;7.33;;
69280;SDS011;56392;51.082;17.080;2023-07-22T22:37:20;14.25;;;7.85;;
69280;SDS011;56392;51.082;17.080;2023-07-22T22:42:43;15.15;;;7.97;;
69280;SDS011;56392;51.082;17.080;2023-07-22T22:48:06;17.03;;;7.27;;
69280;SDS011;56392;51.082;17.080;2023-07-22T22:53:31;14.35;;;7.18;;
69280;SDS011;56392;51.082;17.080;2023-07-22T22:58:54;14.30;;;6.50;;
69280;SDS011;56392;51.082;17.080;2023-07-22T23:04:17;11.60;;;6.00;;
69280;SDS011;56392;51.082;17.080;2023-07-22T23:09:41;14.18;;;6.35;;
69280;SDS011;56392;51.082;17.080;2023-07-22T23:15:05;14.32;;;6.50;;
69280;SDS011;56392;51.082;17.080;2023-07-22T23:20:30;14.43;;;6.60;;
69280;SDS011;56392;51.082;17.080;2023-07-22T23:25:54;13.17;;;6.13;;
69280;SDS011;56392;51.082;17.080;2023-07-22T23:31:17;11.98;;;5.97;;
69280;SDS011;56392;51.082;17.080;2023-07-22T23:36:40;11.90;;;6.20;;
69280;SDS011;56392;51.082;17.080;2023-07-22T23:42:06;13.57;;;5.87;;
69280;SDS011;56392;51.082;17.080;2023-07-22T23:47:29;13.93;;;5.97;;
69280;SDS011;56392;51.082;17.080;2023-07-22T23:52:52;13.13;;;6.13;;
69280;SDS011;56392;51.082;17.080;2023-07-22T23:58:17;12.47;;;6.23;;
